Time;durP1;ratioP1;P1;durP2;ratioP2;P2;SDS_P1;SDS_P2;PMS_P1;PMS_P2;Temp;Humidity;BMP_temperature;BMP_pressure;BME280_temperature;BME280_humidity;BME280_pressure;Samples;Min_cycle;Max_cycle;Signal;HPM_P1;HPM_P2
2021/01/20 00:00:08;;;;;;;6.10;3.85;;;6.10;99.90;;;;;;5021601;28;20228;-85
2021/01/20 00:02:35;;;;;;;7.47;3.53;;;6.10;99.90;;;;;;5015955;28;20204;-85
2021/01/20 00:05:02;;;;;;;4.82;3.08;;;6.00;99.90;;;;;;5015909;28;20197;-85
2021/01/20 00:07:28;;;;;;;7.95;4.40;;;6.00;99.90;;;;;;5017019;28;20216;-85
2021/01/20 00:09:55;;;;;;;5.28;3.58;;;5.90;99.90;;;;;;5030359;28;20196;-86
2021/01/20 00:12:21;;;;;;;6.80;4.57;;;5.90;99.90;;;;;;5031590;28;20198;-87
2021/01/20 00:14:48;;;;;;;6.90;4.80;;;5.90;99.90;;;;;;5035276;28;20201;-86
2021/01/20 00:17:15;;;;;;;6.40;3.05;;;5.90;99.90;;;;;;5014988;28;20196;-86
2021/01/20 00:19:41;;;;;;;5.25;2.95;;;5.90;99.90;;;;;;5033495;28;20228;-86
2021/01/20 00:22:10;;;;;;;3.25;2.78;;;5.90;99.90;;;;;;5038708;28;20276;-87
2021/01/20 00:24:37;;;;;;;6.10;3.03;;;5.80;99.90;;;;;;5029585;28;20204;-87
2021/01/20 00:27:03;;;;;;;6.50;3.67;;;5.80;99.90;;;;;;5017123;28;20251;-86
2021/01/20 00:29:30;;;;;;;7.45;3.05;;;5.80;99.90;;;;;;5030653;28;20185;-86
2021/01/20 00:31:56;;;;;;;8.52;3.00;;;5.80;99.90;;;;;;5018286;28;20194;-87
2021/01/20 00:34:23;;;;;;;4.40;3.35;;;5.70;99.90;;;;;;5033133;28;20200;-87
2021/01/20 00:36:49;;;;;;;7.63;3.78;;;5.70;99.90;;;;;;5029018;28;20276;-87
2021/01/20 00:39:17;;;;;;;3.70;2.25;;;5.70;99.90;;;;;;5015896;28;20557;-87
2021/01/20 00:41:44;;;;;;;5.00;2.70;;;5.70;99.90;;;;;;5016938;28;20263;-86
2021/01/20 00:44:10;;;;;;;5.68;2.42;;;5.70;99.90;;;;;;5017671;28;20204;-87
2021/01/20 00:46:36;;;;;;;6.57;3.22;;;5.70;99.90;;;;;;5027917;28;20557;-86
2021/01/20 00:49:03;;;;;;;3.97;2.53;;;5.70;99.90;;;;;;5034048;28;20185;-87
2021/01/20 00:51:29;;;;;;;11.93;2.70;;;5.80;99.90;;;;;;5027350;28;20189;-86
2021/01/20 00:53:56;;;;;;;6.53;3.05;;;5.80;99.90;;;;;;5028620;28;20231;-86
2021/01/20 00:56:23;;;;;;;4.43;2.55;;;5.80;99.90;;;;;;5024261;28;20193;-86
2021/01/20 00:58:49;;;;;;;3.67;2.65;;;5.70;99.90;;;;;;5031653;28;20193;-86
2021/01/20 01:01:16;;;;;;;4.50;2.88;;;5.70;99.90;;;;;;5014269;28;20228;-86
2021/01/20 01:03:42;;;;;;;4.43;2.90;;;5.70;99.90;;;;;;5025805;28;20192;-86
2021/01/20 01:06:09;;;;;;;7.63;3.00;;;5.70;99.90;;;;;;5026418;28;20193;-86
2021/01/20 01:08:35;;;;;;;4.95;2.70;;;5.70;99.90;;;;;;5023569;28;20628;-87
2021/01/20 01:11:03;;;;;;;11.05;3.47;;;5.80;99.90;;;;;;5020990;28;20193;-86
2021/01/20 01:13:30;;;;;;;4.13;3.00;;;5.80;99.90;;;;;;5017841;28;20222;-86
2021/01/20 01:15:57;;;;;;;8.02;2.97;;;5.70;99.90;;;;;;5032118;28;20268;-86
2021/01/20 01:18:23;;;;;;;4.03;2.70;;;5.80;99.90;;;;;;5021494;28;20250;-85
2021/01/20 01:20:49;;;;;;;6.63;2.95;;;5.80;99.90;;;;;;5027760;28;20769;-86
2021/01/20 01:23:16;;;;;;;8.15;3.85;;;5.80;99.90;;;;;;5028013;28;20189;-86
2021/01/20 01:25:42;;;;;;;9.02;3.58;;;5.90;99.90;;;;;;5022748;28;20192;-88
2021/01/20 01:28:13;;;;;;;4.25;2.53;;;5.90;99.90;;;;;;5033926;28;20193;-87
2021/01/20 01:30:41;;;;;;;4.75;3.10;;;6.00;99.90;;;;;;5021716;28;20243;-87
2021/01/20 01:33:08;;;;;;;5.38;3.20;;;6.00;99.90;;;;;;5032523;28;20197;-87
2021/01/20 01:35:34;;;;;;;7.40;2.83;;;6.00;99.90;;;;;;5019273;28;20288;-86
2021/01/20 01:38:00;;;;;;;8.80;3.50;;;6.00;99.90;;;;;;5033282;28;20181;-87
2021/01/20 01:40:27;;;;;;;6.97;3.38;;;6.00;99.90;;;;;;5031749;28;20556;-88
2021/01/20 01:42:53;;;;;;;4.80;2.40;;;6.10;99.90;;;;;;5017534;28;20191;-86
2021/01/20 01:45:20;;;;;;;8.38;2.90;;;6.00;99.90;;;;;;5025862;28;20197;-86
2021/01/20 01:47:47;;;;;;;5.82;4.25;;;6.10;99.90;;;;;;5016410;28;20185;-88
2021/01/20 01:50:14;;;;;;;7.18;4.00;;;6.10;99.90;;;;;;5026686;28;20265;-87
2021/01/20 01:52:41;;;;;;;6.38;4.22;;;6.10;99.90;;;;;;5031346;28;20702;-86
2021/01/20 01:55:10;;;;;;;4.70;2.85;;;6.10;99.90;;;;;;5031950;28;20282;-86
2021/01/20 01:57:38;;;;;;;7.82;3.03;;;6.00;99.90;;;;;;5025260;28;20188;-87
2021/01/20 02:00:06;;;;;;;5.55;3.90;;;6.00;99.90;;;;;;5013585;28;20553;-87
2021/01/20 02:02:33;;;;;;;4.50;2.53;;;5.90;99.90;;;;;;5031232;28;20197;-87
2021/01/20 02:05:00;;;;;;;5.28;3.40;;;6.00;99.90;;;;;;5031692;28;20189;-86
2021/01/20 02:07:28;;;;;;;6.28;3.40;;;6.00;99.90;;;;;;5017425;28;20664;-86
2021/01/20 02:09:54;;;;;;;6.95;3.10;;;6.00;99.90;;;;;;5023674;28;20251;-86
2021/01/20 02:12:39;;;;;;;4.72;2.88;;;6.10;99.90;;;;;;5019103;28;20595;-86
2021/01/20 02:15:12;;;;;;;4.45;2.65;;;6.20;99.90;;;;;;5036851;28;20200;-86
2021/01/20 02:17:44;;;;;;;4.65;3.05;;;6.30;99.90;;;;;;5027168;28;20193;-86
2021/01/20 02:20:33;;;;;;;7.00;3.15;;;6.40;99.90;;;;;;5032741;28;20235;-85
2021/01/20 02:23:04;;;;;;;6.05;3.20;;;6.40;99.90;;;;;;5035380;28;20204;-87
2021/01/20 02:25:54;;;;;;;4.90;3.45;;;6.40;99.90;;;;;;5028956;28;20194;-86
2021/01/20 02:28:24;;;;;;;5.00;2.78;;;6.40;99.90;;;;;;5017279;28;20198;-86
2021/01/20 02:30:52;;;;;;;5.22;2.90;;;6.40;99.90;;;;;;5013430;28;20202;-86
2021/01/20 02:33:23;;;;;;;6.80;4.18;;;6.40;99.90;;;;;;5032278;28;20208;-86
2021/01/20 02:35:53;;;;;;;5.55;2.42;;;6.40;99.90;;;;;;5025181;28;20193;-87
2021/01/20 02:38:21;;;;;;;5.00;2.80;;;6.40;99.90;;;;;;5016022;28;20560;-87
2021/01/20 02:40:47;;;;;;;3.60;2.50;;;6.50;99.90;;;;;;5015808;28;20225;-86
2021/01/20 02:43:13;;;;;;;5.13;2.80;;;6.50;99.90;;;;;;5020541;28;20193;-87
2021/01/20 02:45:40;;;;;;;5.63;2.92;;;6.50;99.90;;;;;;5024500;28;20196;-86
2021/01/20 02:48:08;;;;;;;3.75;2.35;;;6.50;99.90;;;;;;5019833;28;20557;-88
2021/01/20 02:50:34;;;;;;;3.10;2.50;;;6.50;99.90;;;;;;5030754;28;20196;-86
2021/01/20 02:53:05;;;;;;;4.60;3.00;;;6.50;99.90;;;;;;5035243;28;20196;-87
2021/01/20 02:55:33;;;;;;;6.38;2.65;;;6.50;99.90;;;;;;5029390;28;20287;-86
2021/01/20 02:58:04;;;;;;;5.55;3.17;;;6.50;99.90;;;;;;5019548;28;20272;-88
2021/01/20 03:00:31;;;;;;;4.13;2.60;;;6.60;99.90;;;;;;5017118;28;20734;-87
2021/01/20 03:03:01;;;;;;;5.20;2.80;;;6.50;99.90;;;;;;5016688;28;20205;-87
2021/01/20 03:05:29;;;;;;;4.35;2.50;;;6.50;99.90;;;;;;5033361;28;20203;-87
2021/01/20 03:07:56;;;;;;;5.93;2.63;;;6.60;99.90;;;;;;5015612;28;20201;-87
2021/01/20 03:10:24;;;;;;;4.35;2.80;;;6.60;99.90;;;;;;5015787;28;20284;-87
2021/01/20 03:12:50;;;;;;;5.18;2.95;;;6.60;99.90;;;;;;5015865;28;20239;-87
2021/01/20 03:15:21;;;;;;;4.15;2.75;;;6.60;99.90;;;;;;5015263;28;20202;-87
2021/01/20 03:17:48;;;;;;;3.40;2.00;;;6.60;99.90;;;;;;5016146;28;20201;-87
2021/01/20 03:20:15;;;;;;;4.32;2.75;;;6.60;99.90;;;;;;5026431;28;20217;-87
2021/01/20 03:22:42;;;;;;;4.65;2.67;;;6.60;99.90;;;;;;5016632;28;20186;-86
2021/01/20 03:25:09;;;;;;;3.33;2.45;;;6.60;99.90;;;;;;5023417;28;20211;-87
2021/01/20 03:27:36;;;;;;;3.95;2.70;;;6.70;99.90;;;;;;5031880;28;20208;-87
2021/01/20 03:30:02;;;;;;;5.47;2.85;;;6.70;99.90;;;;;;5020679;28;20197;-87
2021/01/20 03:32:28;;;;;;;3.25;2.42;;;6.70;99.90;;;;;;5016977;28;20190;-88
2021/01/20 03:34:55;;;;;;;3.03;2.33;;;6.60;99.90;;;;;;5019959;28;20194;-87
2021/01/20 03:37:22;;;;;;;5.30;3.72;;;6.70;99.90;;;;;;5017348;28;20193;-87
2021/01/20 03:39:49;;;;;;;4.90;2.50;;;6.70;99.90;;;;;;5018060;28;20201;-88
2021/01/20 03:42:16;;;;;;;5.07;3.15;;;6.70;99.90;;;;;;5029694;28;20220;-87
2021/01/20 03:44:42;;;;;;;4.70;3.60;;;6.70;99.90;;;;;;5044305;28;20185;-88
2021/01/20 03:47:09;;;;;;;5.20;2.90;;;6.70;99.90;;;;;;5035709;28;20243;-87
2021/01/20 03:49:45;;;;;;;6.10;3.58;;;6.70;99.90;;;;;;5028429;28;20608;-88
2021/01/20 03:52:11;;;;;;;4.53;2.92;;;6.70;99.90;;;;;;5037035;28;20204;-88
2021/01/20 03:54:38;;;;;;;7.07;3.03;;;6.70;99.90;;;;;;5026806;28;20194;-88
2021/01/20 03:57:05;;;;;;;4.85;3.10;;;6.70;99.90;;;;;;5034537;28;20199;-88
2021/01/20 03:59:31;;;;;;;4.63;2.92;;;6.70;99.90;;;;;;5023349;28;20435;-88
2021/01/20 04:01:58;;;;;;;6.28;3.78;;;6.70;99.90;;;;;;5014307;28;20217;-88
2021/01/20 04:04:24;;;;;;;7.13;2.80;;;6.70;99.90;;;;;;5025216;28;20556;-88
2021/01/20 04:06:51;;;;;;;3.95;2.85;;;6.70;99.90;;;;;;5033601;28;20612;-87
2021/01/20 04:09:17;;;;;;;5.45;3.45;;;6.70;99.90;;;;;;5033256;28;20426;-87
2021/01/20 04:11:43;;;;;;;2.85;2.05;;;6.70;99.90;;;;;;5035050;28;20215;-88
2021/01/20 04:14:11;;;;;;;5.03;3.40;;;6.70;99.90;;;;;;5024774;28;20185;-87
2021/01/20 04:16:37;;;;;;;4.30;2.45;;;6.60;99.90;;;;;;5025380;28;20669;-88
2021/01/20 04:19:03;;;;;;;3.65;2.53;;;6.60;99.90;;;;;;5024110;28;20235;-88
2021/01/20 04:21:29;;;;;;;3.47;2.65;;;6.70;99.90;;;;;;5013735;28;20221;-87
2021/01/20 04:23:56;;;;;;;3.80;2.78;;;6.70;99.90;;;;;;5015079;28;20537;-89
2021/01/20 04:26:22;;;;;;;3.88;2.33;;;6.70;99.90;;;;;;5015129;28;20189;-88
2021/01/20 04:28:48;;;;;;;5.03;2.42;;;6.80;99.90;;;;;;5015109;28;20553;-88
2021/01/20 04:31:15;;;;;;;5.20;2.35;;;6.80;99.90;;;;;;5025077;28;20194;-89
2021/01/20 04:33:42;;;;;;;4.60;3.00;;;6.80;99.90;;;;;;5015492;28;20193;-88
2021/01/20 04:36:08;;;;;;;6.68;2.53;;;6.90;99.90;;;;;;5020140;28;20552;-88
2021/01/20 04:38:35;;;;;;;3.75;2.70;;;6.90;99.90;;;;;;5031768;28;20663;-89
2021/01/20 04:41:01;;;;;;;5.88;3.10;;;6.90;99.90;;;;;;5026456;28;20564;-88
2021/01/20 04:43:27;;;;;;;5.47;2.80;;;6.80;99.90;;;;;;5032668;28;20195;-88
2021/01/20 04:45:54;;;;;;;4.72;3.25;;;6.90;99.90;;;;;;5015040;28;20207;-88
2021/01/20 04:48:31;;;;;;;5.90;3.30;;;6.90;99.90;;;;;;5020779;28;20203;-88
2021/01/20 04:50:57;;;;;;;7.07;2.90;;;6.80;99.90;;;;;;5034047;28;20281;-88
2021/01/20 04:53:26;;;;;;;6.68;3.60;;;6.80;99.90;;;;;;5025441;28;20545;-88
2021/01/20 04:55:55;;;;;;;7.30;4.50;;;6.70;99.90;;;;;;5014578;28;20202;-88
2021/01/20 04:58:22;;;;;;;6.45;4.22;;;6.70;99.90;;;;;;5022525;28;20545;-89
2021/01/20 05:00:51;;;;;;;7.35;5.00;;;6.70;99.90;;;;;;5034148;28;20213;-88
2021/01/20 05:03:18;;;;;;;13.25;8.52;;;6.70;99.90;;;;;;5020516;28;20197;-89
2021/01/20 05:05:46;;;;;;;14.75;9.00;;;6.70;99.90;;;;;;5027422;28;20185;-89
2021/01/20 05:08:12;;;;;;;5.53;3.10;;;6.70;99.90;;;;;;5014327;28;20240;-87
2021/01/20 05:10:39;;;;;;;5.03;3.47;;;6.70;99.90;;;;;;5024365;28;20189;-89
2021/01/20 05:13:22;;;;;;;6.80;4.68;;;6.70;99.90;;;;;;5024973;28;20674;-88
2021/01/20 05:15:48;;;;;;;50.85;24.77;;;6.80;99.90;;;;;;5019320;28;20189;-89
2021/01/20 05:18:15;;;;;;;22.88;13.10;;;6.90;99.90;;;;;;5016014;28;20200;-89
2021/01/20 05:20:41;;;;;;;20.23;12.52;;;6.80;99.90;;;;;;5030355;28;20669;-89
2021/01/20 05:23:10;;;;;;;14.05;8.38;;;6.90;99.90;;;;;;4996902;28;20194;-90
2021/01/20 05:25:38;;;;;;;18.08;12.30;;;6.90;99.90;;;;;;5016233;28;20243;-88
2021/01/20 05:28:21;;;;;;;21.83;13.60;;;6.90;99.90;;;;;;5034307;28;20640;-89
2021/01/20 05:30:49;;;;;;;72.97;45.70;;;6.80;99.90;;;;;;5019025;28;20194;-88
2021/01/20 05:33:17;;;;;;;70.95;45.28;;;6.80;99.90;;;;;;5015405;28;20193;-88
2021/01/20 05:35:44;;;;;;;9.50;3.67;;;6.70;99.90;;;;;;5014809;28;20247;-88
2021/01/20 05:38:14;;;;;;;3.30;2.42;;;6.70;99.90;;;;;;5014522;28;20189;-89
2021/01/20 05:40:41;;;;;;;3.40;2.80;;;6.80;99.90;;;;;;5014460;28;20259;-90
2021/01/20 05:43:07;;;;;;;3.90;3.20;;;6.80;99.90;;;;;;5014226;28;20186;-89
2021/01/20 05:45:45;;;;;;;4.78;3.17;;;6.80;99.90;;;;;;5014568;28;20608;-89
2021/01/20 05:48:11;;;;;;;7.15;2.65;;;6.70;99.90;;;;;;5039588;28;20189;-89
2021/01/20 05:50:55;;;;;;;3.38;2.42;;;6.80;99.90;;;;;;5030245;28;20669;-89
2021/01/20 05:53:23;;;;;;;4.45;2.88;;;6.70;99.90;;;;;;5022635;28;20197;-89
2021/01/20 05:56:04;;;;;;;3.50;2.30;;;6.70;99.90;;;;;;5034397;28;20189;-90
2021/01/20 05:58:38;;;;;;;5.93;3.28;;;6.60;99.90;;;;;;5032955;28;20197;-89
2021/01/20 06:01:08;;;;;;;2.90;2.10;;;6.80;99.90;;;;;;5033827;28;20243;-89
2021/01/20 06:03:36;;;;;;;2.58;1.60;;;6.80;99.90;;;;;;5033471;28;20215;-89
2021/01/20 06:06:04;;;;;;;4.47;2.65;;;6.90;99.90;;;;;;5023305;28;20268;-89
2021/01/20 06:08:33;;;;;;;3.72;3.03;;;7.00;99.90;;;;;;5013742;28;20189;-89
2021/01/20 06:11:00;;;;;;;3.80;2.65;;;7.00;99.90;;;;;;5016709;28;20190;-90
2021/01/20 06:13:27;;;;;;;2.92;2.38;;;7.10;99.90;;;;;;5023426;28;20198;-90
2021/01/20 06:15:58;;;;;;;4.03;2.38;;;7.20;99.90;;;;;;5022189;28;20185;-90
2021/01/20 06:18:28;;;;;;;3.08;2.08;;;7.30;99.90;;;;;;5019711;28;20194;-92
2021/01/20 06:20:54;;;;;;;2.70;1.60;;;7.40;99.90;;;;;;5017963;28;20214;-90
2021/01/20 06:23:25;;;;;;;3.85;2.50;;;7.40;99.90;;;;;;5017808;28;20592;-89
2021/01/20 06:26:00;;;;;;;5.20;2.55;;;7.40;99.90;;;;;;5028457;28;20213;-91
2021/01/20 06:28:26;;;;;;;4.18;3.00;;;7.50;99.90;;;;;;5029556;28;20196;-90
2021/01/20 06:30:54;;;;;;;3.83;2.90;;;7.50;99.90;;;;;;5018136;28;20198;-90
2021/01/20 06:33:21;;;;;;;3.67;2.55;;;7.50;99.90;;;;;;5017892;28;20200;-91
2021/01/20 06:35:50;;;;;;;4.53;2.47;;;7.50;99.90;;;;;;5025693;28;20263;-88
2021/01/20 06:38:38;;;;;;;3.28;1.95;;;7.60;99.90;;;;;;5025116;28;20557;-88
2021/01/20 06:41:09;;;;;;;3.40;1.95;;;7.60;99.90;;;;;;5036608;28;20248;-88
2021/01/20 06:43:41;;;;;;;3.85;2.25;;;7.60;99.90;;;;;;5033700;28;20185;-88
2021/01/20 06:46:31;;;;;;;3.88;2.13;;;7.60;99.90;;;;;;5021905;28;20201;-88
2021/01/20 06:49:08;;;;;;;3.22;2.30;;;7.60;99.90;;;;;;5016294;28;20192;-87
2021/01/20 06:51:34;;;;;;;4.30;1.80;;;7.60;99.90;;;;;;5034682;28;20246;-87
2021/01/20 06:54:14;;;;;;;3.08;1.83;;;7.60;99.90;;;;;;5031523;28;20559;-87
2021/01/20 06:56:43;;;;;;;4.25;2.10;;;7.60;99.90;;;;;;5033448;28;20192;-88
2021/01/20 06:59:23;;;;;;;3.25;2.17;;;7.60;99.90;;;;;;5029824;28;20231;-90
2021/01/20 07:02:09;;;;;;;3.03;1.90;;;7.70;99.90;;;;;;5026445;28;20220;-87
2021/01/20 07:05:03;;;;;;;3.10;1.50;;;7.70;99.90;;;;;;5016173;28;20247;-91
2021/01/20 07:08:04;;;;;;;4.00;2.38;;;7.70;99.90;;;;;;5020549;28;20192;-90
2021/01/20 07:10:54;;;;;;;3.67;1.90;;;7.70;99.90;;;;;;5028469;28;20194;-89
2021/01/20 07:13:21;;;;;;;3.00;2.35;;;7.80;99.90;;;;;;5016798;28;20189;-89
2021/01/20 07:15:54;;;;;;;2.65;1.98;;;7.70;99.90;;;;;;5029101;28;20196;-89
2021/01/20 07:18:22;;;;;;;3.88;2.20;;;7.80;99.90;;;;;;5017175;28;20679;-87
2021/01/20 07:20:49;;;;;;;2.70;2.10;;;7.80;99.90;;;;;;5035340;28;20480;-88
2021/01/20 07:23:16;;;;;;;4.20;2.85;;;7.70;99.90;;;;;;5028707;28;20240;-88
2021/01/20 07:25:46;;;;;;;3.75;2.15;;;7.70;99.90;;;;;;5030167;28;20189;-87
2021/01/20 07:28:12;;;;;;;3.72;2.63;;;7.70;99.90;;;;;;5036230;28;20197;-87
2021/01/20 07:30:40;;;;;;;3.90;2.53;;;7.70;99.90;;;;;;5019600;28;20197;-87
2021/01/20 07:33:22;;;;;;;2.70;1.98;;;7.70;99.90;;;;;;5024478;28;20197;-87
2021/01/20 07:35:50;;;;;;;3.45;1.90;;;7.70;99.90;;;;;;5027368;28;20193;-88
2021/01/20 07:38:17;;;;;;;2.92;1.65;;;7.70;99.90;;;;;;5032326;28;20189;-88
2021/01/20 07:40:45;;;;;;;3.80;2.03;;;7.60;99.90;;;;;;5035116;28;20564;-91
2021/01/20 07:43:22;;;;;;;4.43;1.95;;;7.70;99.90;;;;;;5024263;28;20189;-87
2021/01/20 07:45:50;;;;;;;2.45;1.60;;;7.70;99.90;;;;;;5014962;28;20189;-87
2021/01/20 07:48:18;;;;;;;32.17;22.30;;;7.70;99.90;;;;;;5015481;28;20255;-85
2021/01/20 07:50:46;;;;;;;36.88;26.23;;;7.60;99.90;;;;;;5026072;28;20196;-88
2021/01/20 07:53:15;;;;;;;8.05;5.50;;;7.60;99.90;;;;;;5017712;28;20220;-89
2021/01/20 07:55:42;;;;;;;10.98;9.32;;;7.60;99.90;;;;;;5015419;28;20181;-86
2021/01/20 07:58:08;;;;;;;3.92;2.30;;;7.60;99.90;;;;;;5014908;28;20244;-87
2021/01/20 08:00:47;;;;;;;6.85;2.40;;;7.70;99.90;;;;;;5015888;28;20193;-87
2021/01/20 08:03:15;;;;;;;3.53;2.40;;;7.70;99.90;;;;;;5014804;28;20188;-87
2021/01/20 08:05:42;;;;;;;3.75;2.30;;;7.70;99.90;;;;;;5015249;28;20193;-87
2021/01/20 08:08:14;;;;;;;2.97;1.85;;;7.80;99.90;;;;;;5016137;28;20704;-87
2021/01/20 08:10:42;;;;;;;4.60;2.22;;;7.90;99.90;;;;;;5018282;28;20667;-88
2021/01/20 08:13:12;;;;;;;6.35;2.30;;;7.90;99.90;;;;;;5029436;28;20193;-87
2021/01/20 08:15:40;;;;;;;5.18;2.67;;;8.00;99.90;;;;;;5024245;28;20592;-87
2021/01/20 08:18:09;;;;;;;2.85;2.03;;;8.00;99.90;;;;;;5007060;28;20189;-90
2021/01/20 08:20:36;;;;;;;3.42;2.10;;;8.00;99.90;;;;;;5022353;28;20241;-91
2021/01/20 08:23:05;;;;;;;3.75;2.20;;;8.00;99.90;;;;;;5035525;28;20181;-87
2021/01/20 08:25:32;;;;;;;4.72;3.33;;;8.00;99.90;;;;;;5034578;28;20196;-89
2021/01/20 08:28:12;;;;;;;5.53;2.97;;;8.00;99.90;;;;;;5031103;28;20552;-89
2021/01/20 08:30:39;;;;;;;2.00;1.17;;;7.90;99.90;;;;;;5035591;28;20184;-90
2021/01/20 08:33:05;;;;;;;3.55;1.40;;;7.90;99.90;;;;;;5030161;28;20185;-89
2021/01/20 08:35:33;;;;;;;4.88;2.25;;;7.90;99.90;;;;;;5034935;28;20204;-91
2021/01/20 08:38:01;;;;;;;4.50;2.22;;;7.80;99.90;;;;;;5037809;28;20200;-88
2021/01/20 08:40:28;;;;;;;3.47;1.85;;;7.70;99.90;;;;;;5035509;28;20192;-88
2021/01/20 08:42:54;;;;;;;4.10;1.80;;;7.50;99.90;;;;;;5029942;28;20748;-89
2021/01/20 08:45:31;;;;;;;4.90;2.35;;;7.40;99.90;;;;;;5029152;28;20231;-89
2021/01/20 08:47:59;;;;;;;4.43;2.20;;;7.30;99.90;;;;;;5012179;28;20181;-89
2021/01/20 08:50:34;;;;;;;2.85;1.88;;;7.30;99.90;;;;;;5027455;28;20285;-89
2021/01/20 08:53:02;;;;;;;3.00;1.85;;;7.30;99.90;;;;;;5030706;28;20185;-88
2021/01/20 08:55:30;;;;;;;3.10;2.13;;;7.30;99.90;;;;;;5018507;28;20193;-89
2021/01/20 08:58:22;;;;;;;5.80;2.10;;;7.30;99.90;;;;;;5020811;28;20189;-90
2021/01/20 09:00:50;;;;;;;3.33;1.90;;;7.40;99.90;;;;;;5038432;28;20597;-88
2021/01/20 09:03:18;;;;;;;2.45;1.75;;;7.50;99.90;;;;;;5034756;28;20271;-89
2021/01/20 09:05:45;;;;;;;3.50;1.98;;;7.50;99.90;;;;;;5034894;28;20686;-90
2021/01/20 09:08:13;;;;;;;5.25;2.40;;;7.50;99.90;;;;;;5024420;28;20193;-89
2021/01/20 09:10:39;;;;;;;4.72;3.70;;;7.50;99.90;;;;;;5015338;28;20224;-90
2021/01/20 09:13:05;;;;;;;4.57;2.30;;;7.60;99.90;;;;;;5021449;28;20192;-89
2021/01/20 09:15:32;;;;;;;4.15;2.00;;;7.70;99.90;;;;;;5015223;28;20193;-90
2021/01/20 09:17:59;;;;;;;5.28;3.10;;;7.70;99.90;;;;;;5019473;28;20589;-89
2021/01/20 09:20:25;;;;;;;3.33;2.15;;;7.70;99.90;;;;;;5025588;28;20351;-91
2021/01/20 09:22:51;;;;;;;3.30;2.08;;;7.80;99.90;;;;;;5028923;28;20220;-91
2021/01/20 09:25:18;;;;;;;5.28;1.95;;;7.80;99.90;;;;;;5024799;28;20208;-89
2021/01/20 09:27:45;;;;;;;3.90;2.05;;;7.90;99.90;;;;;;5034364;28;20185;-90
2021/01/20 09:30:12;;;;;;;4.57;2.42;;;7.90;99.90;;;;;;5017228;28;20189;-90
2021/01/20 09:32:39;;;;;;;3.55;2.10;;;8.00;99.90;;;;;;5015249;28;20197;-88
2021/01/20 09:35:08;;;;;;;2.47;1.63;;;8.10;99.90;;;;;;5001215;28;20189;-87
2021/01/20 09:37:34;;;;;;;5.15;2.40;;;8.20;99.90;;;;;;5020023;28;20189;-85
2021/01/20 09:40:00;;;;;;;3.40;2.13;;;8.20;99.90;;;;;;5022535;28;20184;-85
2021/01/20 09:42:27;;;;;;;3.90;1.85;;;8.20;99.90;;;;;;5032192;28;20231;-89
2021/01/20 09:44:54;;;;;;;3.28;2.75;;;8.20;99.90;;;;;;5025546;28;20192;-90
2021/01/20 09:47:20;;;;;;;4.40;2.03;;;8.30;99.90;;;;;;5026583;28;20193;-88
2021/01/20 09:49:46;;;;;;;3.50;2.10;;;8.30;99.90;;;;;;5022625;28;20247;-88
2021/01/20 09:52:15;;;;;;;4.60;2.50;;;8.40;99.90;;;;;;5020441;28;20201;-87
2021/01/20 09:54:42;;;;;;;3.92;1.92;;;8.40;99.90;;;;;;5032458;28;20197;-86
2021/01/20 09:57:09;;;;;;;2.88;1.75;;;8.50;99.90;;;;;;5032289;28;20184;-86
2021/01/20 09:59:36;;;;;;;3.65;2.03;;;8.50;99.90;;;;;;5033443;28;20299;-87
2021/01/20 10:02:02;;;;;;;3.75;2.35;;;8.50;99.90;;;;;;5022957;28;20209;-87
2021/01/20 10:04:28;;;;;;;3.80;2.50;;;8.50;99.90;;;;;;5033706;28;20193;-87
2021/01/20 10:06:55;;;;;;;5.90;2.33;;;8.40;99.90;;;;;;5028670;28;20916;-86
2021/01/20 10:09:21;;;;;;;11.00;2.80;;;8.40;99.90;;;;;;5026158;28;20186;-87
2021/01/20 10:11:49;;;;;;;3.55;2.42;;;8.40;99.90;;;;;;5033551;28;20208;-86
2021/01/20 10:14:16;;;;;;;3.38;2.55;;;8.40;99.90;;;;;;5019719;28;20190;-87
2021/01/20 10:16:46;;;;;;;3.00;2.00;;;8.40;99.90;;;;;;5016741;28;20189;-86
2021/01/20 10:19:13;;;;;;;5.03;3.03;;;8.50;99.90;;;;;;5028611;28;20254;-87
2021/01/20 10:21:40;;;;;;;4.25;2.80;;;8.40;99.90;;;;;;5036395;28;20212;-87
2021/01/20 10:24:07;;;;;;;2.92;2.10;;;8.50;99.90;;;;;;5027920;28;20189;-91
2021/01/20 10:26:33;;;;;;;4.43;2.50;;;8.50;99.90;;;;;;5032310;28;20201;-86
2021/01/20 10:28:59;;;;;;;3.10;2.20;;;8.50;99.90;;;;;;5016993;28;20178;-87
2021/01/20 10:31:29;;;;;;;4.90;2.30;;;8.60;99.90;;;;;;5019760;28;20552;-87
2021/01/20 10:33:56;;;;;;;3.20;2.03;;;8.60;99.90;;;;;;5027636;28;20200;-88
2021/01/20 10:36:22;;;;;;;3.75;2.42;;;8.70;99.90;;;;;;5017244;28;20189;-86
2021/01/20 10:38:49;;;;;;;4.07;2.58;;;8.70;99.90;;;;;;5023527;28;20185;-90
2021/01/20 10:41:17;;;;;;;5.90;2.42;;;8.80;99.90;;;;;;5017319;28;20236;-87
2021/01/20 10:43:44;;;;;;;3.65;2.25;;;8.80;99.90;;;;;;5017018;28;20192;-86
2021/01/20 10:46:10;;;;;;;3.72;2.47;;;8.80;99.90;;;;;;5017298;28;20240;-87
2021/01/20 10:48:36;;;;;;;15.35;12.27;;;8.90;99.90;;;;;;5030837;28;20188;-90
2021/01/20 10:51:04;;;;;;;30.90;24.95;;;8.80;99.90;;;;;;5016503;28;20189;-86
2021/01/20 10:53:30;;;;;;;30.02;21.73;;;8.90;99.90;;;;;;5016235;28;20193;-86
2021/01/20 10:55:56;;;;;;;7.25;5.20;;;9.00;99.90;;;;;;5041408;28;20255;-87
2021/01/20 10:58:23;;;;;;;14.63;10.43;;;9.00;99.90;;;;;;5027744;28;20188;-85
2021/01/20 11:00:50;;;;;;;9.85;7.97;;;9.00;99.90;;;;;;5033786;28;20243;-91
2021/01/20 11:03:19;;;;;;;3.95;3.22;;;9.10;99.90;;;;;;5034073;28;20196;-87
2021/01/20 11:05:46;;;;;;;4.10;3.40;;;9.20;99.90;;;;;;5038171;28;20243;-87
2021/01/20 11:08:13;;;;;;;3.08;2.30;;;9.20;99.90;;;;;;5027344;28;20557;-86
2021/01/20 11:10:40;;;;;;;5.70;2.80;;;9.20;99.90;;;;;;5016307;28;20640;-87
2021/01/20 11:13:08;;;;;;;4.07;2.20;;;9.40;99.90;;;;;;5024580;28;20193;-87
2021/01/20 11:15:35;;;;;;;4.25;2.40;;;9.50;99.90;;;;;;5036570;28;20197;-87
2021/01/20 11:18:03;;;;;;;4.72;2.25;;;9.50;99.90;;;;;;5029760;28;20193;-87
2021/01/20 11:20:29;;;;;;;3.35;2.25;;;9.50;99.90;;;;;;5017638;28;20276;-87
2021/01/20 11:22:55;;;;;;;3.67;2.30;;;9.40;99.90;;;;;;5022306;28;20676;-87
2021/01/20 11:25:23;;;;;;;4.00;2.50;;;9.40;99.90;;;;;;5035680;28;20242;-87
2021/01/20 11:27:50;;;;;;;5.03;2.72;;;9.50;99.90;;;;;;5035837;28;20184;-88
2021/01/20 11:30:17;;;;;;;4.53;2.55;;;9.50;99.90;;;;;;5037112;28;20188;-87
2021/01/20 11:32:43;;;;;;;5.13;2.70;;;9.60;99.90;;;;;;5028064;28;20182;-87
2021/01/20 11:35:11;;;;;;;3.50;2.33;;;9.80;99.90;;;;;;5016331;28;20189;-88
2021/01/20 11:37:37;;;;;;;3.90;2.70;;;10.00;99.90;;;;;;5015854;28;20194;-87
2021/01/20 11:40:05;;;;;;;6.97;2.95;;;10.20;99.90;;;;;;5016136;28;20189;-87
2021/01/20 11:42:33;;;;;;;3.80;2.47;;;10.30;99.90;;;;;;5034477;28;20204;-88
2021/01/20 11:45:00;;;;;;;7.03;2.75;;;10.30;99.90;;;;;;5018901;28;20220;-88
2021/01/20 11:47:26;;;;;;;4.75;2.50;;;10.20;99.90;;;;;;5022053;28;20263;-89
2021/01/20 11:49:53;;;;;;;5.47;2.80;;;10.20;99.90;;;;;;5021169;28;20186;-91
2021/01/20 11:52:20;;;;;;;5.13;2.83;;;10.00;99.90;;;;;;5018262;28;20534;-92
2021/01/20 11:54:47;;;;;;;5.15;1.83;;;10.00;99.90;;;;;;5018066;28;20193;-90
2021/01/20 11:57:13;;;;;;;4.82;2.80;;;10.00;99.90;;;;;;5016848;28;20185;-91
2021/01/20 11:59:41;;;;;;;6.72;2.35;;;10.00;99.90;;;;;;5022202;28;20189;-86
2021/01/20 12:02:07;;;;;;;3.38;2.20;;;10.00;99.90;;;;;;5015783;28;20221;-86
2021/01/20 12:04:33;;;;;;;3.72;1.80;;;10.00;99.90;;;;;;5015638;28;20212;-86
2021/01/20 12:07:00;;;;;;;4.95;2.20;;;10.00;99.90;;;;;;5036676;28;20181;-87
2021/01/20 12:09:26;;;;;;;4.78;3.90;;;9.90;99.90;;;;;;5034893;28;20197;-87
2021/01/20 12:11:52;;;;;;;5.40;2.85;;;9.90;99.90;;;;;;5034466;28;20189;-87
2021/01/20 12:14:19;;;;;;;4.13;2.90;;;10.00;99.90;;;;;;5041757;28;20208;-87
2021/01/20 12:16:46;;;;;;;4.05;2.10;;;9.90;99.90;;;;;;5023579;28;20194;-87
2021/01/20 12:19:12;;;;;;;5.00;2.38;;;9.90;99.90;;;;;;5027738;28;20267;-86
2021/01/20 12:21:39;;;;;;;3.80;2.63;;;9.90;99.90;;;;;;5026626;28;20209;-86
2021/01/20 12:24:06;;;;;;;5.00;2.67;;;9.80;99.90;;;;;;5015585;28;20216;-87
2021/01/20 12:26:33;;;;;;;4.38;2.40;;;9.80;99.90;;;;;;5015942;28;20537;-87
2021/01/20 12:28:59;;;;;;;3.60;2.50;;;9.90;99.90;;;;;;5024010;28;20189;-87
2021/01/20 12:31:25;;;;;;;4.18;3.17;;;10.00;99.90;;;;;;5029870;28;20267;-87
2021/01/20 12:33:53;;;;;;;4.35;2.40;;;10.20;99.90;;;;;;5016162;28;20588;-87
2021/01/20 12:36:21;;;;;;;3.42;2.40;;;10.50;99.90;;;;;;5019208;28;20524;-88
2021/01/20 12:38:47;;;;;;;5.18;3.30;;;10.80;99.90;;;;;;5035189;28;20219;-87
2021/01/20 12:41:13;;;;;;;5.47;2.30;;;10.80;99.90;;;;;;5033849;28;20217;-87
2021/01/20 12:43:40;;;;;;;6.75;2.88;;;10.70;99.90;;;;;;5016263;28;20197;-88
2021/01/20 12:46:06;;;;;;;4.97;2.00;;;10.60;99.90;;;;;;5027628;28;20188;-88
2021/01/20 12:48:32;;;;;;;4.30;2.70;;;10.40;99.90;;;;;;5045853;28;20199;-87
2021/01/20 12:50:59;;;;;;;5.13;3.10;;;10.30;99.90;;;;;;5042662;28;20189;-86
2021/01/20 12:53:26;;;;;;;6.05;2.80;;;10.30;99.90;;;;;;5035653;28;20200;-88
2021/01/20 12:55:52;;;;;;;4.03;2.42;;;10.30;99.90;;;;;;5028210;28;20195;-85
2021/01/20 12:58:18;;;;;;;4.72;2.30;;;10.20;99.90;;;;;;5035452;28;20243;-86
2021/01/20 13:00:45;;;;;;;4.00;2.47;;;10.20;99.90;;;;;;5034817;28;20208;-85